Time;durP1;ratioP1;P1;durP2;ratioP2;P2;SDS_P1;SDS_P2;PMS_P1;PMS_P2;Temp;Humidity;BMP_temperature;BMP_pressure;BME280_temperature;BME280_humidity;BME280_pressure;Samples;Min_cycle;Max_cycle;Signal;HPM_P1;HPM_P2
2024/01/13 00:00:18;;;;;;;39.78;15.18;;;2.20;99.90;;;0.51;100.00;101597.53;5979113;23;20357;-82
2024/01/13 00:02:49;;;;;;;59.78;15.80;;;1.90;99.90;;;0.54;100.00;101605.34;6071807;22;20016;-81
2024/01/13 00:05:23;;;;;;;60.33;15.82;;;2.20;99.90;;;0.59;100.00;101608.84;6055397;23;20014;-82
2024/01/13 00:08:14;;;;;;;51.40;16.17;;;2.20;99.90;;;0.65;100.00;101614.91;6008262;23;20021;-84
2024/01/13 00:10:40;;;;;;;59.47;14.68;;;2.20;99.90;;;0.64;100.00;101610.59;6023921;23;20019;-83
2024/01/13 00:13:08;;;;;;;51.78;13.80;;;2.20;99.90;;;0.64;100.00;101610.59;5958509;23;20443;-83
2024/01/13 00:15:43;;;;;;;43.80;14.02;;;;;;;0.65;100.00;101613.22;6020966;23;20954;-82
2024/01/13 00:18:21;;;;;;;54.78;13.85;;;;;;;0.63;100.00;101596.78;6069419;22;20009;-84
2024/01/13 00:20:49;;;;;;;47.63;11.02;;;2.20;99.90;;;0.61;100.00;101595.91;6088800;23;20334;-83
2024/01/13 00:23:15;;;;;;;53.97;11.85;;;2.20;99.90;;;0.63;100.00;101589.00;6019190;23;20125;-83
2024/01/13 00:25:55;;;;;;;51.53;11.68;;;2.20;99.90;;;0.61;100.00;101586.38;6052989;23;20088;-81
2024/01/13 00:28:33;;;;;;;58.40;10.00;;;;;;;0.64;100.00;101584.69;6021163;23;20038;-82
2024/01/13 00:31:45;;;;;;;50.15;9.77;;;;;;;0.61;100.00;101576.03;5997584;23;20408;-83
2024/01/13 00:33:49;;;;;;;40.22;8.00;;;;;;;0.64;100.00;101584.69;6042734;23;20606;-83
2024/01/13 00:36:15;;;;;;;46.83;8.45;;;2.30;99.90;;;0.67;100.00;101585.59;6000722;23;20225;-82
2024/01/13 00:38:43;;;;;;;37.00;7.03;;;2.30;99.90;;;0.64;100.00;101575.19;5989076;23;20015;-82
2024/01/13 00:41:20;;;;;;;39.88;6.88;;;2.30;99.90;;;0.67;100.00;101582.09;6003463;23;20013;-84
2024/01/13 00:43:47;;;;;;;40.90;6.10;;;2.30;99.90;;;0.57;100.00;101558.72;6095256;22;20019;-84
2024/01/13 00:46:34;;;;;;;37.45;6.03;;;2.30;99.90;;;0.57;100.00;101560.44;6023573;23;20038;-82
2024/01/13 00:49:02;;;;;;;41.90;5.50;;;2.20;99.90;;;0.57;100.00;101552.66;5994292;23;20018;-83
2024/01/13 00:51:32;;;;;;;30.63;5.03;;;2.20;99.90;;;0.55;100.00;101554.38;6012963;23;20061;-83
2024/01/13 00:54:10;;;;;;;41.55;5.88;;;;;;;0.58;100.00;101550.09;6004725;23;20044;-82
2024/01/13 00:56:45;;;;;;;34.28;5.35;;;2.30;99.90;;;0.63;100.00;101560.50;6091217;22;20009;-81
2024/01/13 00:59:14;;;;;;;38.40;5.97;;;2.20;99.90;;;0.58;100.00;101557.88;6064700;23;20512;-83
2024/01/13 01:01:51;;;;;;;32.13;4.57;;;2.20;99.90;;;0.61;100.00;101560.47;5948485;23;20025;-84
2024/01/13 01:04:17;;;;;;;39.78;5.70;;;;;;;0.65;100.00;101556.19;6041649;22;20011;-80
2024/01/13 01:06:43;;;;;;;28.70;4.82;;;;;;;0.65;100.00;101551.00;6043627;23;20075;-81
2024/01/13 01:09:29;;;;;;;38.15;6.55;;;2.30;99.90;;;0.67;100.00;101543.22;6043433;23;20023;-83
2024/01/13 01:12:12;;;;;;;31.13;4.85;;;;;;;0.67;100.00;101543.22;6030472;23;20412;-82
2024/01/13 01:15:14;;;;;;;23.48;4.55;;;2.30;99.90;;;0.69;100.00;101533.72;6018813;23;20100;-82
2024/01/13 01:18:08;;;;;;;34.40;5.45;;;2.30;99.90;;;0.70;100.00;101536.34;5986575;23;20035;-84
2024/01/13 01:20:34;;;;;;;32.13;5.13;;;2.30;99.90;;;0.68;100.00;101535.47;5937385;23;20487;-82
2024/01/13 01:23:00;;;;;;;36.72;5.00;;;2.30;99.90;;;0.69;100.00;101525.94;5854078;23;20099;-82
2024/01/13 01:25:35;;;;;;;35.67;6.28;;;;;;;0.73;100.00;101527.72;5936241;23;20103;-84
2024/01/13 01:28:03;;;;;;;40.77;6.00;;;2.30;99.90;;;0.71;100.00;101524.25;5887214;23;20082;-84
2024/01/13 01:30:56;;;;;;;38.55;5.22;;;2.30;99.90;;;0.72;100.00;101513.88;5931719;23;20254;-83
2024/01/13 01:33:22;;;;;;;33.97;4.93;;;2.30;99.90;;;0.67;100.00;101501.75;5898643;23;20468;-82
2024/01/13 01:36:12;;;;;;;34.85;4.65;;;;;;;0.70;100.00;101492.28;5924284;23;20019;-83
2024/01/13 01:38:40;;;;;;;29.58;4.28;;;2.30;99.90;;;0.70;100.00;101487.09;5907966;23;20026;-84
2024/01/13 01:41:07;;;;;;;37.22;4.38;;;2.30;99.90;;;0.73;100.00;101473.28;5877137;23;20396;-83
2024/01/13 01:43:42;;;;;;;45.58;5.53;;;;;;;0.76;100.00;101466.38;5854729;23;20021;-83
2024/01/13 01:46:10;;;;;;;36.58;4.80;;;;;;;0.76;100.00;101460.34;6009749;23;20019;-83
2024/01/13 01:51:16;;;;;;;39.80;5.07;;;;;;;0.74;100.00;101459.47;6081455;23;20623;-83
2024/01/13 01:53:52;;;;;;;35.33;4.88;;;2.40;99.90;;;0.75;100.00;101458.59;6053560;23;20023;-81
2024/01/13 01:56:41;;;;;;;29.25;3.88;;;2.40;99.90;;;0.73;100.00;101461.16;6038115;23;20016;-82
2024/01/13 01:59:10;;;;;;;36.15;4.70;;;2.40;99.90;;;0.79;100.00;101470.72;6055824;23;20017;-83
2024/01/13 02:01:36;;;;;;;52.55;4.80;;;2.40;99.90;;;0.76;100.00;101460.34;6054562;23;20459;-82
2024/01/13 02:04:03;;;;;;;30.52;5.15;;;2.40;99.90;;;0.77;100.00;101462.94;5969862;23;20037;-80
2024/01/13 02:06:50;;;;;;;24.50;4.07;;;2.40;99.90;;;0.80;100.00;101462.09;6042552;23;20021;-83
2024/01/13 02:09:19;;;;;;;39.33;5.43;;;2.40;99.90;;;0.79;100.00;101456.03;6039649;23;20368;-82
2024/01/13 02:11:45;;;;;;;33.22;4.63;;;2.40;99.90;;;0.79;100.00;101450.84;6021673;23;20760;-82
2024/01/13 02:14:11;;;;;;;32.97;4.40;;;2.40;99.90;;;0.78;100.00;101448.25;6018296;23;20037;-82
2024/01/13 02:16:43;;;;;;;42.30;5.25;;;;;;;0.80;100.00;101443.94;6067386;23;20138;-82
2024/01/13 02:19:12;;;;;;;36.08;4.43;;;;;;;0.83;100.00;101441.38;6047718;23;20048;-84
2024/01/13 02:22:04;;;;;;;37.65;4.88;;;2.40;99.90;;;0.84;100.00;101431.84;6088418;23;20013;-83
2024/01/13 02:24:30;;;;;;;35.33;4.40;;;2.40;99.90;;;0.83;100.00;101433.59;6108787;23;20017;-83
2024/01/13 02:26:56;;;;;;;45.38;5.13;;;;;;;0.83;100.00;101436.19;6029141;23;20025;-82
2024/01/13 02:29:22;;;;;;;50.60;4.72;;;2.40;99.90;;;0.81;100.00;101432.72;6073085;23;20031;-82
2024/01/13 02:32:11;;;;;;;40.38;4.10;;;;;;;0.86;100.00;101430.13;6039261;23;20012;-82
2024/01/13 02:34:40;;;;;;;33.35;4.35;;;2.50;99.90;;;0.85;100.00;101420.63;6056635;23;20082;-83
2024/01/13 02:37:05;;;;;;;34.67;4.60;;;2.50;99.90;;;0.87;100.00;101418.91;6006201;23;20010;-82
2024/01/13 02:39:31;;;;;;;38.22;4.05;;;2.50;99.90;;;0.88;100.00;101407.66;6021231;23;20064;-82
2024/01/13 02:42:05;;;;;;;37.25;4.35;;;2.50;99.90;;;0.89;100.00;101399.91;6015943;23;20496;-82
2024/01/13 02:44:34;;;;;;;38.83;3.83;;;;;;;0.90;100.00;101406.81;6016699;23;20018;-82
2024/01/13 02:47:00;;;;;;;45.65;4.47;;;2.50;99.90;;;0.90;100.00;101401.63;6042762;23;20062;-82
2024/01/13 02:49:31;;;;;;;42.30;3.92;;;2.50;99.90;;;0.91;100.00;101395.59;6011096;23;20065;-81
2024/01/13 02:51:57;;;;;;;25.73;4.30;;;2.50;99.90;;;0.93;100.00;101399.06;6008906;23;20100;-82
2024/01/13 02:54:22;;;;;;;34.88;4.55;;;2.50;99.90;;;0.94;100.00;101395.59;6000865;23;20017;-81
2024/01/13 02:56:51;;;;;;;39.00;4.20;;;2.60;99.90;;;0.96;100.00;101390.44;6008622;23;20480;-81
2024/01/13 02:59:24;;;;;;;46.03;4.35;;;2.50;99.90;;;0.94;100.00;101385.22;5992188;23;20256;-82
2024/01/13 03:01:50;;;;;;;38.00;4.32;;;;;;;0.94;100.00;101377.44;6024677;23;20016;-82
2024/01/13 03:04:16;;;;;;;36.45;3.58;;;2.50;99.90;;;0.91;100.00;101380.03;6096259;23;20462;-81
2024/01/13 03:06:42;;;;;;;32.53;3.97;;;2.50;99.90;;;0.91;100.00;101374.00;6074201;23;20017;-80
2024/01/13 03:09:12;;;;;;;37.60;5.63;;;2.50;99.90;;;0.91;100.00;101361.88;6075413;23;20028;-82
2024/01/13 03:11:38;;;;;;;33.67;4.88;;;2.50;99.90;;;0.91;100.00;101366.22;6010625;23;20478;-81
2024/01/13 03:14:04;;;;;;;40.80;4.82;;;2.50;99.90;;;0.91;100.00;101361.03;6063284;23;20068;-81
2024/01/13 03:16:30;;;;;;;51.28;4.32;;;2.50;99.90;;;0.92;100.00;101357.56;6116395;23;20084;-82
2024/01/13 03:18:55;;;;;;;37.60;5.43;;;2.50;99.90;;;0.91;100.00;101355.84;6029698;23;20099;-80
2024/01/13 03:21:21;;;;;;;50.42;4.93;;;2.50;99.90;;;0.91;100.00;101355.84;6065847;23;20112;-82
2024/01/13 03:23:49;;;;;;;35.92;5.35;;;2.60;99.90;;;0.93;100.00;101364.47;6056668;23;20076;-82
2024/01/13 03:26:18;;;;;;;38.72;4.47;;;2.60;99.90;;;0.94;100.00;101351.50;6040429;23;20013;-81
2024/01/13 03:28:43;;;;;;;47.50;4.38;;;2.50;99.90;;;0.98;100.00;101348.06;6028125;23;20020;-81
2024/01/13 03:31:12;;;;;;;34.97;4.82;;;2.60;99.90;;;1.00;100.00;101350.69;6012521;23;20294;-83
2024/01/13 03:33:38;;;;;;;43.53;4.20;;;2.60;99.90;;;1.00;100.00;101348.94;6036168;23;20060;-81
2024/01/13 03:36:11;;;;;;;37.33;3.92;;;2.60;99.90;;;0.97;100.00;101340.28;6021651;23;20026;-81
2024/01/13 03:38:38;;;;;;;33.95;4.72;;;2.50;99.90;;;0.94;100.00;101328.19;6097276;23;20092;-81
2024/01/13 03:41:04;;;;;;;38.78;3.70;;;2.50;99.90;;;0.94;100.00;101323.00;6084564;23;20009;-82
2024/01/13 03:43:30;;;;;;;30.05;3.38;;;2.60;99.90;;;0.95;100.00;101321.25;6052097;23;20019;-82
2024/01/13 03:46:05;;;;;;;31.33;3.33;;;2.60;99.90;;;0.97;100.00;101320.41;6057654;23;20369;-82
2024/01/13 03:48:31;;;;;;;37.05;3.67;;;2.60;99.90;;;0.98;100.00;101329.06;6088995;23;20017;-80
2024/01/13 03:50:56;;;;;;;29.77;3.60;;;2.60;99.90;;;1.01;100.00;101322.13;6033569;23;20532;-81
2024/01/13 03:53:22;;;;;;;22.02;3.63;;;2.60;99.90;;;0.97;100.00;101319.53;6055957;23;20489;-81
2024/01/13 03:55:58;;;;;;;26.15;3.65;;;2.60;99.90;;;0.98;100.00;101319.53;6062126;23;20413;-82
2024/01/13 03:58:24;;;;;;;28.77;2.85;;;2.60;99.90;;;0.97;100.00;101310.06;6038805;23;20092;-82
2024/01/13 04:00:50;;;;;;;30.98;3.00;;;2.60;99.90;;;0.95;100.00;101292.72;6054963;23;20046;-82
2024/01/13 04:03:25;;;;;;;28.48;3.13;;;;;;;0.95;100.00;101291.03;6018666;23;20019;-81
2024/01/13 04:05:53;;;;;;;35.65;3.30;;;2.60;99.90;;;0.94;100.00;101281.50;6060987;23;20445;-82
2024/01/13 04:08:19;;;;;;;23.25;3.63;;;2.60;99.90;;;0.95;100.00;101280.66;6073117;23;20009;-81
2024/01/13 04:10:52;;;;;;;24.00;3.35;;;2.60;99.90;;;0.94;100.00;101281.50;6013320;23;20012;-81
2024/01/13 04:13:18;;;;;;;27.27;3.60;;;2.60;99.90;;;0.92;100.00;101270.25;6024810;23;20020;-82
2024/01/13 04:15:44;;;;;;;31.65;3.15;;;2.60;99.90;;;0.93;100.00;101281.50;6011646;23;20076;-82
2024/01/13 04:18:09;;;;;;;29.25;3.30;;;2.60;99.90;;;0.93;100.00;101274.59;5960092;23;20100;-83
2024/01/13 04:20:35;;;;;;;22.02;4.05;;;2.50;99.90;;;0.96;100.00;101281.50;6041539;23;20092;-82
2024/01/13 04:23:12;;;;;;;24.65;2.92;;;2.50;99.90;;;0.95;100.00;101275.47;6024904;23;20006;-83
2024/01/13 04:25:38;;;;;;;18.77;2.85;;;2.60;99.90;;;0.95;100.00;101282.34;6023606;23;20486;-82
2024/01/13 04:28:04;;;;;;;12.82;3.08;;;2.60;99.90;;;1.00;100.00;101286.69;6099015;23;20017;-82
2024/01/13 04:30:42;;;;;;;28.67;2.78;;;2.60;99.90;;;1.00;100.00;101278.91;6102351;23;20036;-82
2024/01/13 04:33:07;;;;;;;14.30;2.63;;;2.60;99.90;;;1.05;100.00;101270.28;6011324;23;20022;-83
2024/01/13 04:35:43;;;;;;;22.83;3.25;;;2.60;99.90;;;1.05;100.00;101267.69;6029931;23;20101;-82
2024/01/13 04:38:09;;;;;;;18.75;3.33;;;2.60;99.90;;;1.05;100.00;101265.97;6037497;23;20013;-84
2024/01/13 04:40:37;;;;;;;15.07;2.70;;;2.70;99.90;;;1.02;100.00;101256.44;6000495;23;20056;-83
2024/01/13 04:43:13;;;;;;;19.70;2.50;;;2.60;99.90;;;1.01;100.00;101257.28;6003918;23;20017;-83
2024/01/13 04:45:39;;;;;;;18.30;2.72;;;;;;;0.98;100.00;101254.72;6035506;23;20079;-84
2024/01/13 04:48:18;;;;;;;20.25;2.88;;;;;;;0.98;100.00;101246.94;6093219;23;20358;-83
2024/01/13 04:50:52;;;;;;;16.38;2.20;;;;;;;0.97;100.00;101244.31;6081078;23;20013;-82
2024/01/13 04:53:22;;;;;;;11.10;2.30;;;2.60;99.90;;;0.97;100.00;101247.81;6072090;23;20375;-83
2024/01/13 04:56:03;;;;;;;13.73;1.95;;;2.60;99.90;;;0.96;100.00;101240.88;6041023;23;20009;-84
2024/01/13 04:58:39;;;;;;;14.40;2.03;;;2.60;99.90;;;0.95;100.00;101240.88;6147316;23;20008;-83
2024/01/13 05:01:04;;;;;;;;;;;2.60;99.90;;;0.93;100.00;101227.94;6083423;23;20040;-83
2024/01/13 05:03:30;;;;;;;18.57;1.63;;;2.60;99.90;;;0.91;100.00;101221.88;6060185;23;19925;-83
2024/01/13 05:06:03;;;;;;;13.15;2.10;;;2.60;99.90;;;0.92;100.00;101205.44;6041289;23;20020;-83
2024/01/13 05:08:33;;;;;;;9.40;1.55;;;;;;;0.93;100.00;101214.06;6028420;23;20005;-83
2024/01/13 05:10:59;;;;;;;11.30;1.52;;;2.50;99.90;;;0.90;100.00;101199.38;6034143;23;20017;-84
2024/01/13 05:14:02;;;;;;;17.38;2.17;;;;;;;0.93;100.00;101199.41;5973466;23;20014;-83
2024/01/13 05:16:33;;;;;;;9.85;2.45;;;2.60;99.90;;;0.94;100.00;101192.47;6009853;23;20460;-85
2024/01/13 05:19:09;;;;;;;;;;;;;;;;;;;;;
2024/01/13 05:21:36;;;;;;;16.13;1.90;;;;;;;0.99;100.00;101189.03;5901064;23;20976;-84
2024/01/13 05:24:02;;;;;;;9.40;1.98;;;;;;;1.00;100.00;101192.50;5921603;23;20101;-86
2024/01/13 05:26:54;;;;;;;12.02;1.70;;;;;;;1.05;100.00;101182.97;5972411;23;20028;-85
2024/01/13 05:29:22;;;;;;;6.75;1.70;;;2.60;99.90;;;1.05;100.00;101189.88;5915413;23;20014;-84
2024/01/13 05:31:57;;;;;;;3.55;1.33;;;2.60;99.90;;;1.05;100.00;101192.47;5954399;23;20455;-86
2024/01/13 05:34:26;;;;;;;8.05;1.58;;;;;;;1.08;100.00;101200.25;5969685;23;20050;-85
2024/01/13 05:37:05;;;;;;;6.72;1.65;;;;;;;1.10;100.00;101198.53;5997658;23;20662;-85
2024/01/13 05:39:42;;;;;;;4.28;1.60;;;2.70;99.90;;;1.07;100.00;101185.56;5982967;23;20090;-86
2024/01/13 05:42:21;;;;;;;;;;;;;;;;;;;;;
2024/01/13 05:44:47;;;;;;;8.82;1.73;;;;;;;1.07;100.00;101180.38;5924826;23;20094;-86
2024/01/13 05:47:14;;;;;;;8.13;1.50;;;2.70;99.90;;;1.08;100.00;101179.50;5940597;23;20051;-85
2024/01/13 05:50:06;;;;;;;8.77;1.60;;;2.70;99.90;;;1.07;100.00;101172.59;5901292;23;20016;-85
2024/01/13 05:52:36;;;;;;;1.75;0.73;;;2.60;99.90;;;1.00;100.00;101163.97;5951407;23;20057;-85
2024/01/13 05:55:15;;;;;;;5.18;1.00;;;;;;;1.02;100.00;101162.22;5905433;23;20834;-85
2024/01/13 05:58:54;;;;;;;4.43;1.30;;;2.70;99.90;;;1.03;100.00;101162.22;5999195;23;20018;-86
2024/01/13 06:01:38;;;;;;;6.85;1.38;;;2.60;99.90;;;0.97;100.00;101143.19;6008535;23;20018;-87
2024/01/13 06:04:33;;;;;;;4.20;1.00;;;2.60;99.90;;;0.94;100.00;101138.88;5997168;23;20022;-86
2024/01/13 06:07:21;;;;;;;3.20;1.23;;;;;;;0.97;100.00;101131.13;5965021;23;20023;-85
2024/01/13 06:09:51;;;;;;;;;;;;;;;0.90;100.00;101129.38;5984924;23;20029;-88
2024/01/13 06:12:28;;;;;;;;;;;;;;;;;;;;;
2024/01/13 06:14:57;;;;;;;2.88;1.00;;;;;;;0.89;100.00;101129.41;5947090;23;20196;-85
2024/01/13 06:17:35;;;;;;;8.02;1.20;;;2.60;99.90;;;0.90;100.00;101129.38;5927594;23;20521;-86
2024/01/13 06:20:34;;;;;;;5.68;1.20;;;;;;;0.91;100.00;101127.66;5953634;23;20025;-85
2024/01/13 06:23:25;;;;;;;4.18;1.05;;;2.60;99.90;;;0.91;100.00;101125.94;5873474;24;20092;-85
2024/01/13 06:26:23;;;;;;;2.92;1.17;;;2.60;99.90;;;0.94;100.00;101109.50;5867111;23;20502;-86
2024/01/13 06:31:47;;;;;;;2.92;1.10;;;;;;;0.86;100.00;101104.31;5846351;23;20094;-85
2024/01/13 06:34:25;;;;;;;10.65;1.92;;;;;;;0.85;100.00;101102.59;5899970;23;20024;-85
2024/01/13 06:37:35;;;;;;;1.98;0.90;;;;;;;0.84;100.00;101095.66;5888908;23;20505;-86
2024/01/13 06:40:16;;;;;;;5.60;1.00;;;2.50;99.90;;;0.82;100.00;101087.03;5902223;23;20021;-86
2024/01/13 06:43:13;;;;;;;3.38;1.20;;;;;;;0.80;100.00;101083.59;5911189;23;20071;-86
2024/01/13 06:46:08;;;;;;;;;;;2.50;99.90;;;0.79;100.00;101084.44;5880392;23;20496;-86
2024/01/13 06:48:34;;;;;;;2.75;1.27;;;2.40;99.90;;;0.77;100.00;101081.00;5885364;23;19956;-85
2024/01/13 06:51:23;;;;;;;1.90;1.40;;;;;;;0.77;100.00;101075.81;6027519;23;20031;-86
2024/01/13 06:53:55;;;;;;;7.80;1.75;;;;;;;0.82;100.00;101066.28;6014856;23;20035;-89
2024/01/13 06:56:50;;;;;;;5.30;2.20;;;2.40;99.90;;;0.84;100.00;101064.56;6036072;23;20023;-87
2024/01/13 06:59:30;;;;;;;6.53;1.85;;;2.50;99.90;;;0.92;100.00;101065.41;5904257;24;20358;-85
2024/01/13 07:01:56;;;;;;;8.90;1.70;;;2.60;99.90;;;0.92;100.00;101065.41;5937007;23;20011;-86
2024/01/13 07:04:58;;;;;;;;;;;;;;;;;;;;;
2024/01/13 07:07:31;;;;;;;1.90;1.30;;;2.60;99.90;;;1.00;100.00;101058.50;5919926;23;20099;-86
2024/01/13 07:10:46;;;;;;;;;;;;;;;;;;;;;
2024/01/13 07:17:06;;;;;;;5.80;1.55;;;2.60;99.90;;;0.99;100.00;101032.56;5795456;24;20030;-86
2024/01/13 07:19:45;;;;;;;3.67;1.10;;;;;;;1.00;100.00;101029.97;5748750;24;20080;-85
2024/01/13 07:22:27;;;;;;;2.05;1.30;;;;;;;0.99;100.00;101017.88;5746002;24;21336;-88
2024/01/13 07:25:16;;;;;;;6.18;1.50;;;;;;;0.99;100.00;101010.09;5726720;24;20016;-88
2024/01/13 07:27:45;;;;;;;2.75;1.52;;;2.60;99.90;;;0.98;100.00;101016.16;5769915;24;20102;-86
2024/01/13 07:30:25;;;;;;;2.90;1.45;;;2.60;99.90;;;0.97;100.00;101006.66;5795112;24;20024;-86
2024/01/13 07:33:35;;;;;;;4.43;1.90;;;2.60;99.90;;;0.97;100.00;101008.34;5712247;24;20497;-86
2024/01/13 07:36:46;;;;;;;4.32;1.52;;;;;;;0.99;100.00;101012.69;5771097;24;20374;-86
2024/01/13 07:42:25;;;;;;;3.25;2.45;;;2.60;99.90;;;1.01;100.00;100999.72;6084977;23;20026;-86
2024/01/13 07:45:07;;;;;;;1.90;1.30;;;2.60;99.90;;;0.98;100.00;100994.53;5985759;23;20018;-86
2024/01/13 07:47:46;;;;;;;2.92;0.82;;;;;;;1.03;100.00;101003.16;6005160;23;20027;-86
2024/01/13 07:50:55;;;;;;;2.03;1.15;;;2.70;99.90;;;1.07;100.00;101001.44;5950575;23;20023;-92
2024/01/13 07:53:35;;;;;;;4.05;1.20;;;;;;;1.08;100.00;101000.53;5933914;23;20360;-84
2024/01/13 07:56:19;;;;;;;2.67;1.02;;;;;;;1.15;100.00;101002.28;5971107;23;20247;-85
2024/01/13 08:01:21;;;;;;;1.77;1.02;;;2.70;99.90;;;1.08;100.00;100987.59;6156691;23;20013;-85
2024/01/13 08:04:36;;;;;;;4.53;1.55;;;;;;;1.11;100.00;100990.19;6043305;23;20013;-84
2024/01/13 08:10:55;;;;;;;1.83;1.20;;;2.80;99.90;;;1.17;100.00;100975.47;5879076;23;20082;-85
2024/01/13 08:14:19;;;;;;;;;;;;;;;;;;;;;
2024/01/13 08:16:45;;;;;;;1.42;1.20;;;;;;;1.14;100.00;100959.88;5939190;23;21265;-85
2024/01/13 08:19:45;;;;;;;3.97;1.23;;;;;;;1.19;100.00;100957.31;5903716;23;20133;-85
2024/01/13 08:22:11;;;;;;;5.97;1.15;;;2.80;99.90;;;1.15;100.00;100956.44;5921330;23;20039;-84
2024/01/13 08:25:06;;;;;;;3.63;1.10;;;;;;;1.17;100.00;100938.28;5821909;23;20018;-84
2024/01/13 08:27:58;;;;;;;4.90;1.10;;;;;;;1.18;100.00;100942.59;5915949;23;20024;-90
2024/01/13 08:30:23;;;;;;;5.68;1.27;;;2.80;99.90;;;1.17;100.00;100936.56;5914343;24;20757;-84
2024/01/13 08:39:39;;;;;;;;;;;;;;;;;;;;;
2024/01/13 08:42:59;;;;;;;5.05;1.30;;;2.80;99.90;;;1.12;100.00;100914.09;5963740;23;20768;-85
2024/01/13 08:45:37;;;;;;;3.92;0.95;;;2.70;99.90;;;1.08;100.00;100925.34;5883801;23;20187;-85
2024/01/13 08:49:07;;;;;;;7.25;1.23;;;2.70;99.90;;;1.06;100.00;100917.59;5918953;23;20544;-90
2024/01/13 08:51:46;;;;;;;2.20;1.17;;;2.70;99.90;;;1.10;100.00;100923.59;5917257;23;20020;-84
2024/01/13 08:54:24;;;;;;;5.90;1.33;;;;;;;1.13;100.00;100928.78;5944234;23;20045;-85
2024/01/13 08:57:05;;;;;;;2.92;1.30;;;;;;;1.18;100.00;100907.13;5972373;23;20660;-85
2024/01/13 09:03:28;;;;;;;4.25;1.42;;;2.90;99.90;;;1.20;100.00;100897.63;5906600;23;20028;-85
2024/01/13 09:06:26;;;;;;;4.50;1.60;;;2.80;99.90;;;1.20;100.00;100896.75;5906851;24;20085;-85
2024/01/13 09:12:14;;;;;;;4.30;1.63;;;2.90;99.90;;;1.22;100.00;100895.88;6079365;22;20032;-85
2024/01/13 09:14:45;;;;;;;4.63;1.98;;;;;;;1.30;100.00;100888.06;6177804;22;20014;-85
2024/01/13 09:20:51;;;;;;;6.10;1.92;;;3.00;99.90;;;1.33;100.00;100871.59;5875163;23;20027;-85
2024/01/13 09:23:30;;;;;;;5.15;1.35;;;;;;;1.38;100.00;100872.44;5943169;23;20454;-85
2024/01/13 09:33:06;;;;;;;9.15;1.65;;;3.00;99.90;;;1.33;100.00;100851.72;5859391;24;20029;-84
2024/01/13 09:36:33;;;;;;;6.90;1.85;;;3.00;99.90;;;1.34;100.00;100843.06;5789918;24;20066;-86
2024/01/13 09:39:24;;;;;;;4.80;1.50;;;;;;;1.34;100.00;100843.06;5744542;24;20462;-85
2024/01/13 09:42:05;;;;;;;3.83;2.08;;;;;;;1.30;100.00;100836.19;5797934;24;20027;-86
2024/01/13 09:44:49;;;;;;;3.17;1.45;;;;;;;1.31;100.00;100827.50;5820834;24;20028;-86
2024/01/13 09:47:25;;;;;;;;;;;;;;;;;;;;;
2024/01/13 09:50:10;;;;;;;6.88;1.67;;;;;;;1.32;100.00;100821.47;5755248;24;20098;-86
2024/01/13 09:52:59;;;;;;;;;;;;;;;;;;;;;
2024/01/13 09:58:25;;;;;;;4.20;1.73;;;3.00;99.90;;;1.38;100.00;100813.63;5702482;24;20638;-86
2024/01/13 10:04:15;;;;;;;5.68;2.67;;;;;;;1.36;100.00;100801.53;6067709;23;20065;-84
2024/01/13 10:06:57;;;;;;;5.88;1.90;;;;;;;1.37;100.00;100801.53;6003794;23;20029;-84
2024/01/13 10:09:23;;;;;;;5.60;1.55;;;;;;;1.36;100.00;100788.56;6107363;23;20377;-84
2024/01/13 10:12:15;;;;;;;6.43;2.00;;;3.00;99.90;;;1.39;100.00;100784.22;6186862;23;20013;-84
2024/01/13 10:15:07;;;;;;;4.60;1.67;;;;;;;1.43;100.00;100774.69;6058239;23;20020;-83
2024/01/13 10:17:33;;;;;;;4.68;1.90;;;;;;;1.47;100.00;100780.69;5992168;23;20352;-84
2024/01/13 10:23:43;;;;;;;5.15;1.60;;;3.10;99.90;;;1.47;100.00;100759.94;5936422;23;20458;-84
2024/01/13 10:26:37;;;;;;;6.22;1.50;;;3.10;99.90;;;1.47;100.00;100755.63;5945354;23;20098;-84
2024/01/13 10:29:15;;;;;;;4.28;1.45;;;;;;;1.46;100.00;100745.25;5963845;23;20040;-84
2024/01/13 10:32:33;;;;;;;3.17;1.10;;;3.10;99.90;;;1.41;100.00;100734.91;5959889;23;20015;-84
2024/01/13 10:35:17;;;;;;;6.97;1.38;;;;;;;1.41;100.00;100725.38;5954856;23;20020;-84
2024/01/13 10:38:07;;;;;;;3.80;1.15;;;3.10;99.90;;;1.42;100.00;100721.03;5918232;23;20524;-85
2024/01/13 10:41:06;;;;;;;4.20;1.48;;;;;;;1.44;100.00;100719.31;5833769;24;20062;-84
2024/01/13 10:47:56;;;;;;;4.60;1.30;;;3.10;99.90;;;1.48;100.00;100699.38;5660052;24;20054;-84
2024/01/13 10:50:25;;;;;;;5.20;1.27;;;3.20;99.90;;;1.50;100.00;100689.84;5759471;24;20085;-85
2024/01/13 10:53:22;;;;;;;1.17;0.80;;;3.20;99.90;;;1.52;100.00;100682.91;5398136;24;4993403;-84
2024/01/13 10:56:04;;;;;;;1.80;0.80;;;3.20;99.90;;;1.54;100.00;100678.56;5714628;24;20177;-83
2024/01/13 11:04:18;;;;;;;2.47;0.63;;;;;;;1.54;100.00;100657.81;6126711;23;20036;-86
2024/01/13 11:07:45;;;;;;;2.58;0.50;;;3.20;99.90;;;1.55;100.00;100642.19;6146436;23;21619;-88
2024/01/13 11:11:16;;;;;;;1.30;0.75;;;3.20;99.90;;;1.64;100.00;100651.63;5943990;23;20019;-84
2024/01/13 11:14:25;;;;;;;1.40;0.85;;;;;;;1.66;100.00;100633.44;5866592;24;20021;-86
2024/01/13 11:17:07;;;;;;;1.17;0.85;;;;;;;1.69;100.00;100631.69;5814946;24;20021;-86
2024/01/13 11:19:46;;;;;;;2.65;1.27;;;3.40;99.90;;;1.73;100.00;100628.16;5826007;24;20026;-86
2024/01/13 11:23:27;;;;;;;4.78;1.50;;;3.40;99.90;;;1.79;100.00;100628.09;5792673;24;20018;-86
2024/01/13 11:26:05;;;;;;;2.13;1.02;;;3.40;99.90;;;1.73;100.00;100622.09;5803172;24;20100;-84
2024/01/13 11:32:15;;;;;;;1.85;1.05;;;;;;;1.73;100.00;100599.63;5773827;24;20034;-85
2024/01/13 11:38:26;;;;;;;2.10;1.50;;;;;;;1.82;100.00;100580.47;5717025;24;20045;-84
2024/01/13 11:41:17;;;;;;;1.88;1.45;;;;;;;1.75;100.00;100563.22;6020003;23;20100;-86
2024/01/13 11:43:58;;;;;;;4.20;1.60;;;;;;;1.80;100.00;100559.72;6160297;23;20616;-86
2024/01/13 11:46:26;;;;;;;2.22;1.40;;;;;;;1.82;100.00;100546.72;6166778;23;20009;-87
2024/01/13 11:56:44;;;;;;;2.15;1.13;;;;;;;1.79;100.00;100518.19;5909381;24;20075;-87
2024/01/13 12:05:07;;;;;;;3.67;1.23;;;;;;;1.67;100.00;100493.25;6205357;23;20028;-86
2024/01/13 12:07:48;;;;;;;1.63;1.17;;;;;;;1.68;100.00;100494.13;6112729;23;20032;-88
2024/01/13 12:10:54;;;;;;;1.75;0.80;;;;;;;1.66;100.00;100486.34;6093696;23;20017;-87
2024/01/13 12:14:06;;;;;;;2.55;1.45;;;3.40;99.90;;;1.73;100.00;100488.00;6124181;23;20009;-86
2024/01/13 12:16:35;;;;;;;2.90;1.30;;;;;;;1.74;100.00;100468.06;6014366;23;20028;-87
2024/01/13 12:19:44;;;;;;;2.42;1.00;;;;;;;1.77;100.00;100466.31;6076895;23;20006;-87
2024/01/13 12:25:35;;;;;;;3.83;1.30;;;;;;;1.74;100.00;100455.94;6061611;23;20045;-86
2024/01/13 12:29:16;;;;;;;;;;;;;;;;;;;;;
2024/01/13 12:32:43;;;;;;;1.75;1.58;;;3.50;99.90;;;1.81;100.00;100438.53;5870499;24;20061;-86
2024/01/13 12:35:48;;;;;;;2.03;1.00;;;;;;;1.79;100.00;100433.41;5968737;23;20036;-86
2024/01/13 12:38:36;;;;;;;2.30;1.00;;;3.50;99.90;;;1.84;100.00;100423.78;5870585;23;20042;-86
2024/01/13 12:41:17;;;;;;;3.38;1.80;;;;;;;1.87;100.00;100427.22;6060506;23;20347;-86
2024/01/13 12:43:46;;;;;;;6.10;1.50;;;;;;;1.88;100.00;100411.63;6032862;23;20582;-86
2024/01/13 12:47:24;;;;;;;;;;;;;;;;;;;;;
2024/01/13 12:50:19;;;;;;;;;;;;;;;;;;;;;
2024/01/13 12:53:47;;;;;;;;;;;;;;;;;;;;;
2024/01/13 12:56:18;;;;;;;5.07;1.95;;;3.50;99.90;;;1.88;100.00;100389.97;5852530;24;20442;-86
2024/01/13 13:01:21;;;;;;;1.85;1.15;;;;;;;1.85;100.00;100385.69;6159480;23;20020;-87
2024/01/13 13:03:47;;;;;;;3.15;2.03;;;3.60;99.90;;;1.91;100.00;100384.75;6065786;23;20641;-86
2024/01/13 13:06:58;;;;;;;3.30;2.10;;;3.60;99.90;;;1.91;100.00;100379.56;5984703;23;20089;-86
2024/01/13 13:10:25;;;;;;;3.42;1.90;;;3.60;99.90;;;1.94;100.00;100364.75;6042643;23;20019;-85
2024/01/13 13:13:23;;;;;;;3.50;1.90;;;3.60;99.90;;;1.92;100.00;100366.53;6034480;23;20010;-86
2024/01/13 13:15:58;;;;;;;2.30;1.90;;;;;;;1.91;100.00;100357.03;5876855;23;20373;-86
2024/01/13 13:18:25;;;;;;;5.22;2.47;;;;;;;1.92;100.00;100357.88;5860065;23;20103;-85
2024/01/13 13:22:05;;;;;;;3.55;2.05;;;3.60;99.90;;;1.93;100.00;100350.06;6085799;23;20091;-86